createdAt,value
2023-04-30T00:00:27.315Z,10.40
2023-04-30T00:02:55.377Z,10.00
2023-04-30T00:05:24.388Z,9.20
2023-04-30T00:07:51.854Z,10.13
2023-04-30T00:10:19.368Z,9.30
2023-04-30T00:12:46.830Z,10.80
2023-04-30T00:15:14.330Z,11.00
2023-04-30T00:17:41.862Z,10.07
2023-04-30T00:20:10.031Z,10.90
2023-04-30T00:22:38.988Z,10.13
2023-04-30T00:25:06.789Z,11.87
2023-04-30T00:27:34.227Z,11.30
2023-04-30T00:30:01.688Z,12.50
2023-04-30T00:32:29.215Z,11.53
2023-04-30T00:34:56.654Z,11.10
2023-04-30T00:37:24.095Z,11.50
2023-04-30T00:39:53.143Z,11.50
2023-04-30T00:42:20.726Z,11.60
2023-04-30T00:44:48.189Z,11.33
2023-04-30T00:47:15.697Z,11.40
2023-04-30T00:49:43.154Z,10.87
2023-04-30T00:52:10.614Z,10.70
2023-04-30T00:54:38.380Z,12.03
2023-04-30T00:57:08.723Z,10.77
2023-04-30T00:59:36.340Z,12.03
2023-04-30T01:02:04.163Z,11.63
2023-04-30T01:04:33.042Z,11.40
2023-04-30T01:07:02.065Z,11.47
2023-04-30T01:09:29.853Z,11.80
2023-04-30T01:12:03.362Z,11.53
2023-04-30T01:14:35.307Z,10.73
2023-04-30T01:17:06.939Z,12.27
2023-04-30T01:19:39.407Z,13.43
2023-04-30T01:22:10.951Z,12.20
2023-04-30T01:25:06.216Z,12.30
2023-04-30T01:27:57.820Z,12.30
2023-04-30T01:30:26.350Z,11.60
2023-04-30T01:32:53.909Z,11.47
2023-04-30T01:35:21.554Z,12.87
2023-04-30T01:37:55.903Z,12.10
2023-04-30T01:40:25.654Z,11.23
2023-04-30T01:43:02.999Z,11.30
2023-04-30T01:45:42.528Z,12.30
2023-04-30T01:48:20.401Z,11.87
2023-04-30T01:50:49.837Z,12.50
2023-04-30T01:53:19.872Z,12.17
2023-04-30T01:55:51.895Z,13.13
2023-04-30T01:58:21.610Z,12.80
2023-04-30T02:00:49.089Z,13.00
2023-04-30T02:03:16.560Z,12.67
2023-04-30T02:05:44.058Z,13.13
2023-04-30T02:08:11.531Z,12.67
2023-04-30T02:10:38.984Z,13.87
2023-04-30T02:13:06.484Z,13.73
2023-04-30T02:15:35.309Z,13.13
2023-04-30T02:18:02.820Z,11.87
2023-04-30T02:20:30.400Z,12.60
2023-04-30T02:22:57.888Z,13.67
2023-04-30T02:25:26.263Z,12.30
2023-04-30T02:27:53.772Z,14.13
2023-04-30T02:30:21.237Z,12.73
2023-04-30T02:32:50.087Z,14.13
2023-04-30T02:35:17.582Z,15.30
2023-04-30T02:37:45.005Z,12.77
2023-04-30T02:40:13.194Z,15.00
2023-04-30T02:42:40.665Z,13.77
2023-04-30T02:45:09.013Z,15.20
2023-04-30T02:47:36.629Z,13.27
2023-04-30T02:50:06.368Z,13.30
2023-04-30T02:52:33.853Z,13.63
2023-04-30T02:55:01.266Z,14.67
2023-04-30T02:57:28.684Z,14.17
2023-04-30T02:59:56.531Z,14.67
2023-04-30T03:02:24.393Z,15.70
2023-04-30T03:04:51.864Z,15.90
2023-04-30T03:07:20.684Z,15.27
2023-04-30T03:09:48.188Z,14.27
2023-04-30T03:12:15.707Z,13.77
2023-04-30T03:14:43.179Z,15.40
2023-04-30T03:17:10.641Z,17.60
2023-04-30T03:19:38.185Z,15.50
2023-04-30T03:22:05.640Z,15.73
2023-04-30T03:24:34.419Z,17.17
2023-04-30T03:27:01.928Z,15.50
2023-04-30T03:29:29.366Z,15.37
2023-04-30T03:31:57.329Z,13.80
2023-04-30T03:34:24.855Z,15.10
2023-04-30T03:36:52.279Z,15.40
2023-04-30T03:39:19.737Z,14.90
2023-04-30T03:41:48.507Z,17.10
2023-04-30T03:44:16.300Z,14.60
2023-04-30T03:46:44.127Z,17.43
2023-04-30T03:49:11.909Z,17.50
2023-04-30T03:51:41.665Z,14.77
2023-04-30T03:54:09.275Z,15.83
2023-04-30T03:56:37.321Z,14.70
2023-04-30T03:59:06.391Z,15.03
2023-04-30T04:01:33.957Z,15.03
2023-04-30T04:04:02.651Z,15.60
2023-04-30T04:06:30.466Z,17.27
2023-04-30T04:08:57.964Z,16.30
2023-04-30T04:11:25.612Z,16.30
2023-04-30T04:13:53.095Z,17.97
2023-04-30T04:16:22.175Z,16.60
2023-04-30T04:18:49.748Z,16.07
2023-04-30T04:21:17.641Z,16.10
2023-04-30T04:23:45.061Z,18.60
2023-04-30T04:26:12.600Z,18.40
2023-04-30T04:28:40.110Z,15.60
2023-04-30T04:31:07.827Z,15.83
2023-04-30T04:33:37.036Z,16.00
2023-04-30T04:36:05.153Z,15.70
2023-04-30T04:38:32.574Z,16.17
2023-04-30T04:41:00.023Z,15.60
2023-04-30T04:43:27.532Z,17.23
2023-04-30T04:45:55.053Z,16.30
2023-04-30T04:48:22.512Z,15.10
2023-04-30T04:50:51.568Z,15.33
2023-04-30T04:53:19.027Z,16.57
2023-04-30T04:55:46.449Z,16.03
2023-04-30T04:58:13.888Z,17.77
2023-04-30T05:00:41.325Z,16.00
2023-04-30T05:03:09.351Z,15.73
2023-04-30T05:05:36.921Z,16.93
2023-04-30T05:08:06.128Z,16.07
2023-04-30T05:10:34.781Z,16.13
2023-04-30T05:13:02.294Z,14.67
2023-04-30T05:15:29.777Z,12.90
2023-04-30T05:17:57.243Z,14.60
2023-04-30T05:20:24.736Z,15.90
2023-04-30T05:22:52.206Z,14.63
2023-04-30T05:25:21.046Z,14.00
2023-04-30T05:27:48.480Z,15.07
2023-04-30T05:30:16.506Z,14.27
2023-04-30T05:32:50.525Z,13.47
2023-04-30T05:35:18.158Z,14.70
2023-04-30T05:37:45.648Z,13.23
2023-04-30T05:40:14.929Z,13.37
2023-04-30T05:42:44.436Z,13.13
2023-04-30T05:45:15.856Z,12.83
2023-04-30T05:47:43.404Z,12.57
2023-04-30T05:50:11.186Z,13.30
2023-04-30T05:52:38.624Z,12.60
2023-04-30T05:55:07.035Z,12.57
2023-04-30T05:57:35.200Z,11.80
2023-04-30T06:00:06.498Z,11.70
2023-04-30T06:02:34.109Z,12.73
2023-04-30T06:05:03.302Z,12.60
2023-04-30T06:07:30.913Z,11.83
2023-04-30T06:09:58.716Z,12.20
2023-04-30T06:12:26.392Z,11.67
2023-04-30T06:14:53.890Z,10.87
2023-04-30T06:17:22.728Z,10.63
2023-04-30T06:19:50.215Z,11.13
2023-04-30T06:22:17.670Z,10.90
2023-04-30T06:24:45.439Z,10.57
2023-04-30T06:27:12.896Z,9.40
2023-04-30T06:29:40.418Z,9.90
2023-04-30T06:32:08.633Z,9.03
2023-04-30T06:34:37.717Z,8.90
2023-04-30T06:37:05.637Z,9.13
2023-04-30T06:39:33.062Z,8.40
2023-04-30T06:42:01.002Z,9.37
2023-04-30T06:44:28.467Z,9.40
2023-04-30T06:46:56.302Z,7.60
2023-04-30T06:49:23.864Z,8.10
2023-04-30T06:51:52.751Z,8.17
2023-04-30T06:54:22.697Z,7.77
2023-04-30T06:56:50.399Z,8.60
2023-04-30T06:59:17.865Z,6.90
2023-04-30T07:01:45.318Z,7.40
2023-04-30T07:04:13.121Z,8.63
2023-04-30T07:06:40.635Z,8.43
2023-04-30T07:09:09.557Z,7.20
2023-04-30T07:11:37.005Z,6.30
2023-04-30T07:14:06.901Z,6.53
2023-04-30T07:16:35.505Z,7.17
2023-04-30T07:19:03.377Z,7.10
2023-04-30T07:21:32.653Z,6.53
2023-04-30T07:24:00.302Z,6.90
2023-04-30T07:26:29.277Z,5.90
2023-04-30T07:28:56.780Z,6.77
2023-04-30T07:31:24.601Z,7.70
2023-04-30T07:33:52.219Z,6.93
2023-04-30T07:36:19.704Z,6.00
2023-04-30T07:38:47.167Z,6.37
2023-04-30T07:41:14.727Z,6.57
2023-04-30T07:43:43.505Z,6.40
2023-04-30T07:46:11.006Z,6.13
2023-04-30T07:48:39.026Z,6.03
2023-04-30T07:51:06.597Z,5.67
2023-04-30T07:53:34.075Z,6.60
2023-04-30T07:56:01.533Z,6.70
2023-04-30T07:58:28.977Z,6.37
2023-04-30T08:00:57.831Z,6.87
2023-04-30T08:03:25.465Z,6.13
2023-04-30T08:05:53.189Z,5.87
2023-04-30T08:08:20.848Z,4.60
2023-04-30T08:10:48.339Z,4.43
2023-04-30T08:13:16.101Z,5.40
2023-04-30T08:15:43.716Z,5.50
2023-04-30T08:18:12.584Z,4.60
2023-04-30T08:20:40.405Z,4.50
2023-04-30T08:23:07.978Z,4.37
2023-04-30T08:25:36.027Z,4.20
2023-04-30T08:28:03.517Z,4.80
2023-04-30T08:30:30.971Z,3.87
2023-04-30T08:32:58.498Z,3.87
2023-04-30T08:35:29.644Z,4.47
2023-04-30T08:37:57.178Z,5.33
2023-04-30T08:40:43.509Z,4.77
2023-04-30T08:43:13.470Z,4.40
2023-04-30T08:45:41.608Z,4.67
2023-04-30T08:48:12.316Z,5.00
2023-04-30T08:50:41.262Z,4.00
2023-04-30T08:53:09.253Z,4.33
2023-04-30T08:55:37.599Z,3.87
2023-04-30T08:58:05.710Z,4.13
2023-04-30T09:00:33.985Z,4.07
2023-04-30T09:03:02.330Z,3.73
2023-04-30T09:05:30.972Z,4.33
2023-04-30T09:08:03.631Z,3.50
2023-04-30T09:10:33.697Z,4.03
2023-04-30T09:13:01.790Z,3.27
2023-04-30T09:15:29.621Z,3.20
2023-04-30T09:18:08.143Z,3.50
2023-04-30T09:20:35.800Z,3.03
2023-04-30T09:23:08.814Z,3.07
2023-04-30T09:25:40.775Z,3.40
2023-04-30T09:28:10.079Z,2.90
2023-04-30T09:30:37.887Z,2.90
2023-04-30T09:33:05.703Z,2.80
2023-04-30T09:35:34.883Z,2.50
2023-04-30T09:38:03.163Z,2.37
2023-04-30T09:40:41.284Z,2.30
2023-04-30T09:43:09.158Z,2.80
2023-04-30T09:45:44.543Z,2.53
2023-04-30T09:48:17.132Z,2.77
2023-04-30T09:50:47.178Z,3.13
2023-04-30T09:53:17.742Z,2.50
2023-04-30T09:55:48.347Z,2.20
2023-04-30T09:58:17.609Z,2.40
2023-04-30T10:00:46.842Z,2.50
2023-04-30T10:03:15.671Z,2.17
2023-04-30T10:05:46.814Z,2.20
2023-04-30T10:08:19.108Z,1.80
2023-04-30T10:10:51.985Z,2.23
2023-04-30T10:13:21.394Z,2.87
2023-04-30T10:15:51.368Z,1.50
2023-04-30T10:18:20.717Z,2.10
2023-04-30T10:20:49.870Z,2.33
2023-04-30T10:23:18.487Z,1.90
2023-04-30T10:25:48.389Z,2.23
2023-04-30T10:28:16.681Z,1.80
2023-04-30T10:30:46.152Z,2.37
2023-04-30T10:33:18.580Z,2.00
2023-04-30T10:35:48.761Z,1.80
2023-04-30T10:38:23.046Z,1.53
2023-04-30T10:40:52.005Z,1.73
2023-04-30T10:43:21.992Z,1.93
2023-04-30T10:45:49.724Z,1.33
2023-04-30T10:48:24.322Z,1.40
2023-04-30T10:50:52.629Z,1.83
2023-04-30T10:53:22.773Z,1.30
2023-04-30T10:55:55.700Z,1.50
2023-04-30T10:58:27.548Z,1.47
2023-04-30T11:01:02.772Z,1.30
2023-04-30T11:03:31.272Z,1.37
2023-04-30T11:05:59.996Z,1.23
2023-04-30T11:08:35.172Z,1.13
2023-04-30T11:11:05.192Z,1.23
2023-04-30T11:13:42.966Z,1.70
2023-04-30T11:16:10.828Z,1.20
2023-04-30T11:18:43.450Z,1.17
2023-04-30T11:21:11.674Z,1.10
2023-04-30T11:23:42.936Z,1.00
2023-04-30T11:26:12.047Z,1.00
2023-04-30T11:28:39.590Z,0.87
2023-04-30T11:31:07.227Z,1.40
2023-04-30T11:33:35.486Z,1.30
2023-04-30T11:36:03.613Z,1.10
2023-04-30T11:38:32.283Z,0.77
2023-04-30T11:41:00.441Z,1.00
2023-04-30T11:43:30.930Z,0.90
2023-04-30T11:46:02.873Z,0.77
2023-04-30T11:48:34.551Z,1.00
2023-04-30T11:51:04.829Z,1.00
2023-04-30T11:53:32.911Z,0.73
2023-04-30T11:56:03.913Z,0.80
2023-04-30T11:58:37.913Z,0.60
2023-04-30T12:01:06.335Z,0.60
2023-04-30T12:03:33.934Z,0.90
2023-04-30T12:06:02.313Z,0.60
2023-04-30T12:08:29.938Z,0.80
2023-04-30T12:10:57.405Z,0.57
2023-04-30T12:13:24.842Z,0.60
2023-04-30T12:16:00.274Z,0.60
2023-04-30T12:18:28.004Z,0.60
2023-04-30T12:20:55.618Z,0.70
2023-04-30T12:23:23.206Z,0.60
2023-04-30T12:25:50.750Z,0.80
2023-04-30T12:28:18.204Z,0.60
2023-04-30T12:30:46.776Z,0.67
2023-04-30T12:33:18.901Z,0.63
2023-04-30T12:35:46.566Z,0.60
2023-04-30T12:38:17.806Z,0.70
2023-04-30T12:40:48.574Z,0.73
2023-04-30T12:43:17.633Z,0.70
2023-04-30T12:45:46.980Z,0.70
2023-04-30T12:48:17.043Z,0.60
2023-04-30T12:50:48.774Z,1.00
2023-04-30T12:53:16.269Z,0.80
2023-04-30T12:55:43.705Z,0.60
2023-04-30T12:58:12.258Z,0.50
2023-04-30T13:00:47.000Z,0.63
2023-04-30T13:03:17.547Z,0.87
2023-04-30T13:05:48.245Z,0.70
2023-04-30T13:08:16.045Z,0.60
2023-04-30T13:10:43.711Z,0.60
2023-04-30T13:13:11.479Z,0.60
2023-04-30T13:15:38.985Z,0.70
2023-04-30T13:18:08.750Z,0.73
2023-04-30T13:20:38.008Z,0.90
2023-04-30T13:23:05.501Z,0.73
2023-04-30T13:25:33.427Z,0.80
2023-04-30T13:28:00.988Z,0.60
2023-04-30T13:30:28.552Z,0.70
2023-04-30T13:32:56.282Z,0.60
2023-04-30T13:35:24.028Z,0.80
2023-04-30T13:37:53.559Z,0.70
2023-04-30T13:40:21.806Z,0.77
2023-04-30T13:42:49.897Z,0.60
2023-04-30T13:45:17.454Z,0.87
2023-04-30T13:47:45.210Z,0.70
2023-04-30T13:50:12.884Z,0.60
2023-04-30T13:52:40.462Z,0.60
2023-04-30T13:55:10.532Z,0.60
2023-04-30T13:57:38.421Z,1.03
2023-04-30T14:00:08.000Z,0.70
2023-04-30T14:02:35.654Z,0.67
2023-04-30T14:05:06.593Z,0.60
2023-04-30T14:07:34.976Z,0.80
2023-04-30T14:10:02.437Z,0.60
2023-04-30T14:12:31.430Z,0.60
2023-04-30T14:14:59.220Z,0.50
2023-04-30T14:17:28.234Z,0.50
2023-04-30T14:19:55.886Z,0.53
2023-04-30T14:22:24.426Z,0.60
2023-04-30T14:24:53.015Z,0.60
2023-04-30T14:27:21.153Z,0.70
2023-04-30T14:29:49.962Z,0.60
2023-04-30T14:32:17.467Z,0.60
2023-04-30T14:34:44.926Z,0.60
2023-04-30T14:37:12.441Z,0.60
2023-04-30T14:39:39.868Z,0.60
2023-04-30T14:42:07.307Z,0.70
2023-04-30T14:44:34.785Z,0.90
2023-04-30T14:47:04.049Z,0.70
2023-04-30T14:49:31.642Z,0.60
2023-04-30T14:51:59.113Z,0.57
2023-04-30T14:54:26.629Z,0.70
2023-04-30T14:56:54.132Z,0.80
2023-04-30T14:59:21.683Z,0.50
2023-04-30T15:01:49.314Z,0.60
2023-04-30T15:04:18.179Z,0.60
2023-04-30T15:06:45.752Z,0.60
2023-04-30T15:09:13.719Z,0.70
2023-04-30T15:11:41.223Z,0.60
2023-04-30T15:14:08.682Z,0.70
2023-04-30T15:16:36.493Z,0.60
2023-04-30T15:19:03.995Z,0.60
2023-04-30T15:21:32.833Z,0.70
2023-04-30T15:24:00.324Z,0.87
2023-04-30T15:26:29.142Z,0.70
2023-04-30T15:28:57.190Z,0.60
2023-04-30T15:31:25.169Z,0.57
2023-04-30T15:33:52.695Z,0.90
2023-04-30T15:36:22.193Z,0.60
2023-04-30T15:38:50.998Z,1.00
2023-04-30T15:41:18.425Z,0.50
2023-04-30T15:43:45.959Z,0.83
2023-04-30T15:46:13.534Z,0.63
2023-04-30T15:48:41.087Z,0.63
2023-04-30T15:51:08.817Z,0.70
2023-04-30T15:53:36.370Z,0.80
2023-04-30T15:56:05.673Z,0.67
2023-04-30T15:58:33.148Z,0.50
2023-04-30T16:01:01.227Z,0.63
2023-04-30T16:03:28.769Z,0.50
2023-04-30T16:05:56.337Z,0.60
2023-04-30T16:08:23.844Z,0.70
2023-04-30T16:10:51.379Z,0.63
2023-04-30T16:13:20.190Z,0.60
2023-04-30T16:15:47.634Z,0.70
2023-04-30T16:18:15.081Z,0.67
2023-04-30T16:20:42.852Z,0.60
2023-04-30T16:23:10.333Z,0.70
2023-04-30T16:25:37.778Z,1.20
2023-04-30T16:28:05.561Z,0.70
2023-04-30T16:30:35.294Z,0.70
2023-04-30T16:33:02.995Z,0.70
2023-04-30T16:35:31.158Z,0.80
2023-04-30T16:37:58.696Z,0.90
2023-04-30T16:40:26.184Z,0.93
2023-04-30T16:42:53.666Z,0.90
2023-04-30T16:45:21.276Z,1.00
2023-04-30T16:47:50.126Z,0.83
2023-04-30T16:50:18.343Z,1.17
2023-04-30T16:52:45.880Z,1.20
2023-04-30T16:55:13.329Z,1.20
2023-04-30T16:57:41.163Z,0.80
2023-04-30T17:00:11.322Z,1.17
2023-04-30T17:02:40.782Z,0.90
2023-04-30T17:05:10.756Z,0.60
2023-04-30T17:07:38.244Z,0.73
2023-04-30T17:10:07.428Z,0.73
2023-04-30T17:12:34.847Z,0.70
2023-04-30T17:15:02.307Z,1.77
2023-04-30T17:17:30.065Z,1.30
2023-04-30T17:19:57.821Z,0.80
2023-04-30T17:22:26.902Z,1.00
2023-04-30T17:24:54.350Z,1.10
2023-04-30T17:27:21.821Z,1.27
2023-04-30T17:29:50.747Z,1.13
2023-04-30T17:32:18.782Z,0.73
2023-04-30T17:34:46.904Z,0.80
2023-04-30T17:37:14.388Z,0.80
2023-04-30T17:39:43.170Z,0.77
2023-04-30T17:42:10.940Z,1.57
2023-04-30T17:44:38.462Z,1.23
2023-04-30T17:47:06.253Z,1.20
2023-04-30T17:49:33.774Z,1.27
2023-04-30T17:52:01.363Z,1.03
2023-04-30T17:54:30.045Z,0.90
2023-04-30T17:56:59.509Z,0.80
2023-04-30T17:59:28.764Z,0.87
2023-04-30T18:01:56.284Z,0.90
2023-04-30T18:04:23.836Z,0.80
2023-04-30T18:06:51.344Z,0.90
2023-04-30T18:09:19.417Z,1.00
2023-04-30T18:11:46.865Z,1.30
2023-04-30T18:14:15.685Z,1.20
2023-04-30T18:16:43.241Z,1.27
2023-04-30T18:19:10.772Z,1.70
2023-04-30T18:21:38.293Z,1.50
2023-04-30T18:24:06.269Z,1.00
2023-04-30T18:26:33.687Z,1.27
2023-04-30T18:29:01.139Z,1.80
2023-04-30T18:31:30.523Z,1.60
2023-04-30T18:33:58.097Z,1.63
2023-04-30T18:36:25.684Z,1.70
2023-04-30T18:38:53.134Z,1.10
2023-04-30T18:41:21.020Z,1.20
2023-04-30T18:43:48.907Z,1.63
2023-04-30T18:46:16.621Z,1.23
2023-04-30T18:48:45.522Z,1.30
2023-04-30T18:51:13.020Z,1.10
2023-04-30T18:53:41.901Z,0.83
2023-04-30T18:56:09.359Z,1.67
2023-04-30T18:58:36.782Z,1.87
2023-04-30T19:01:04.550Z,1.20
2023-04-30T19:03:33.794Z,1.13
2023-04-30T19:06:03.856Z,1.70
2023-04-30T19:08:31.372Z,1.23
2023-04-30T19:10:58.810Z,1.80
2023-04-30T19:13:26.286Z,1.33
2023-04-30T19:15:54.066Z,1.27
2023-04-30T19:18:21.750Z,1.43
2023-04-30T19:20:57.064Z,1.27
2023-04-30T19:23:25.919Z,1.40
2023-04-30T19:25:53.367Z,1.60
2023-04-30T19:28:20.821Z,1.20
2023-04-30T19:30:48.368Z,1.60
2023-04-30T19:33:15.903Z,1.40
2023-04-30T19:35:43.376Z,1.63
2023-04-30T19:38:10.833Z,1.20
2023-04-30T19:40:39.662Z,1.10
2023-04-30T19:43:07.117Z,1.40
2023-04-30T19:45:34.577Z,1.60
2023-04-30T19:48:02.073Z,1.90
2023-04-30T19:50:29.580Z,2.10
2023-04-30T19:52:57.030Z,2.10
2023-04-30T19:55:24.474Z,1.83
2023-04-30T19:57:53.231Z,1.60
2023-04-30T20:00:20.936Z,1.20
2023-04-30T20:02:48.502Z,1.50
2023-04-30T20:05:16.105Z,2.27
2023-04-30T20:07:43.550Z,2.60
2023-04-30T20:10:11.611Z,2.13
2023-04-30T20:12:39.399Z,3.00
2023-04-30T20:15:09.157Z,2.50
2023-04-30T20:17:36.606Z,1.70
2023-04-30T20:20:05.617Z,1.77
2023-04-30T20:22:33.079Z,2.00
2023-04-30T20:25:02.403Z,2.30
2023-04-30T20:27:29.943Z,1.27
2023-04-30T20:29:57.633Z,1.67
2023-04-30T20:32:26.678Z,1.93
2023-04-30T20:34:54.202Z,1.30
2023-04-30T20:37:21.687Z,2.00
2023-04-30T20:39:49.135Z,1.90
2023-04-30T20:42:16.818Z,1.80
2023-04-30T20:44:44.285Z,2.13
2023-04-30T20:47:14.204Z,2.27
2023-04-30T20:49:43.462Z,2.03
2023-04-30T20:52:12.047Z,1.97
2023-04-30T20:54:39.568Z,3.07
2023-04-30T20:57:07.516Z,2.00
2023-04-30T20:59:35.687Z,2.20
2023-04-30T21:02:04.297Z,1.53
2023-04-30T21:04:32.048Z,2.23
2023-04-30T21:07:00.962Z,2.07
2023-04-30T21:09:28.503Z,2.03
2023-04-30T21:11:56.097Z,2.00
2023-04-30T21:14:23.526Z,2.07
2023-04-30T21:16:51.244Z,1.93
2023-04-30T21:19:18.832Z,1.57
2023-04-30T21:21:46.345Z,2.23
2023-04-30T21:24:15.146Z,1.70
2023-04-30T21:26:42.671Z,1.70
2023-04-30T21:29:10.309Z,1.80
2023-04-30T21:31:38.020Z,1.97
2023-04-30T21:34:05.486Z,2.27
2023-04-30T21:36:32.976Z,1.93
2023-04-30T21:39:00.432Z,1.80
2023-04-30T21:41:30.229Z,2.00
2023-04-30T21:43:58.180Z,2.30
2023-04-30T21:46:25.702Z,2.23
2023-04-30T21:48:53.227Z,1.60
2023-04-30T21:51:20.804Z,1.97
2023-04-30T21:53:48.246Z,2.40
2023-04-30T21:56:16.231Z,2.30
2023-04-30T21:58:45.002Z,1.80
2023-04-30T22:01:13.238Z,1.80
2023-04-30T22:03:42.674Z,1.97
2023-04-30T22:06:10.207Z,2.03
2023-04-30T22:08:37.705Z,1.63
2023-04-30T22:11:05.173Z,2.17
2023-04-30T22:13:32.646Z,1.53
2023-04-30T22:16:01.897Z,1.87
2023-04-30T22:18:29.430Z,1.83
2023-04-30T22:20:56.945Z,1.70
2023-04-30T22:23:24.413Z,2.60
2023-04-30T22:25:51.849Z,1.90
2023-04-30T22:28:20.862Z,2.53
2023-04-30T22:30:48.368Z,1.93
2023-04-30T22:33:17.165Z,2.00
2023-04-30T22:35:44.603Z,2.17
2023-04-30T22:38:12.613Z,2.27
2023-04-30T22:40:40.327Z,2.13
2023-04-30T22:43:07.892Z,2.10
2023-04-30T22:45:38.083Z,1.70
2023-04-30T22:48:06.180Z,2.57
2023-04-30T22:50:35.394Z,1.73
2023-04-30T22:53:03.027Z,2.93
2023-04-30T22:55:31.281Z,2.50
2023-04-30T22:57:59.818Z,2.10
2023-04-30T23:00:27.674Z,2.07
2023-04-30T23:02:55.231Z,1.80
2023-04-30T23:05:22.688Z,2.00
2023-04-30T23:07:52.100Z,2.20
2023-04-30T23:10:19.580Z,2.77
2023-04-30T23:12:47.173Z,2.30
2023-04-30T23:15:14.954Z,2.20
2023-04-30T23:17:42.469Z,2.53
2023-04-30T23:20:10.823Z,2.07
2023-04-30T23:22:38.363Z,2.30
2023-04-30T23:25:07.886Z,2.70
2023-04-30T23:27:35.421Z,2.67
2023-04-30T23:30:03.484Z,2.00
2023-04-30T23:32:31.460Z,1.70
2023-04-30T23:34:59.137Z,2.30
2023-04-30T23:37:27.130Z,2.40
2023-04-30T23:39:55.309Z,2.00
2023-04-30T23:42:24.320Z,2.17
2023-04-30T23:44:51.818Z,1.30
2023-04-30T23:47:19.403Z,2.27
2023-04-30T23:49:46.850Z,2.00
2023-04-30T23:52:14.593Z,1.87
2023-04-30T23:54:42.025Z,2.40
2023-04-30T23:57:10.184Z,2.50
2023-04-30T23:59:39.521Z,2.10
